sensor_id;sensor_type;location;lat;lon;timestamp;pressure;altitude;pressure_sealevel;temperature;humidity
66668;BME280;57205;51.438;-2.006;2023-08-07T00:01:42;101446.41;;;11.29;100.00
66668;BME280;57205;51.438;-2.006;2023-08-07T00:04:07;101447.19;;;11.30;100.00
66668;BME280;57205;51.438;-2.006;2023-08-07T00:06:33;101452.00;;;11.28;100.00
66668;BME280;57205;51.438;-2.006;2023-08-07T00:08:58;101443.41;;;11.26;100.00
66668;BME280;57205;51.438;-2.006;2023-08-07T00:11:23;101446.56;;;11.23;100.00
66668;BME280;57205;51.438;-2.006;2023-08-07T00:13:49;101437.97;;;11.21;100.00
66668;BME280;57205;51.438;-2.006;2023-08-07T00:16:14;101436.84;;;11.17;100.00
66668;BME280;57205;51.438;-2.006;2023-08-07T00:18:39;101441.56;;;11.10;100.00
66668;BME280;57205;51.438;-2.006;2023-08-07T00:21:05;101439.34;;;11.02;100.00
66668;BME280;57205;51.438;-2.006;2023-08-07T00:23:30;101448.41;;;11.01;100.00
66668;BME280;57205;51.438;-2.006;2023-08-07T00:25:55;101448.66;;;10.99;100.00
66668;BME280;57205;51.438;-2.006;2023-08-07T00:28:21;101448.91;;;10.98;100.00
66668;BME280;57205;51.438;-2.006;2023-08-07T00:30:46;101441.69;;;10.98;100.00
66668;BME280;57205;51.438;-2.006;2023-08-07T00:33:12;101450.22;;;10.95;100.00
66668;BME280;57205;51.438;-2.006;2023-08-07T00:35:37;101435.78;;;10.96;100.00
66668;BME280;57205;51.438;-2.006;2023-08-07T00:38:03;101429.59;;;10.96;100.00
66668;BME280;57205;51.438;-2.006;2023-08-07T00:40:36;101428.47;;;10.92;100.00
66668;BME280;57205;51.438;-2.006;2023-08-07T00:43:02;101431.88;;;10.87;100.00
66668;BME280;57205;51.438;-2.006;2023-08-07T00:45:27;101425.72;;;10.87;100.00
66668;BME280;57205;51.438;-2.006;2023-08-07T00:47:53;101421.41;;;10.86;100.00
66668;BME280;57205;51.438;-2.006;2023-08-07T00:50:18;101418.69;;;10.80;100.00
66668;BME280;57205;51.438;-2.006;2023-08-07T00:52:44;101422.41;;;10.79;100.00
66668;BME280;57205;51.438;-2.006;2023-08-07T00:55:09;101412.44;;;10.75;100.00
66668;BME280;57205;51.438;-2.006;2023-08-07T00:57:35;101409.19;;;10.73;100.00
66668;BME280;57205;51.438;-2.006;2023-08-07T01:00:01;101418.53;;;10.70;100.00
66668;BME280;57205;51.438;-2.006;2023-08-07T01:02:27;101410.50;;;10.70;100.00
66668;BME280;57205;51.438;-2.006;2023-08-07T01:04:53;101414.22;;;10.69;100.00
66668;BME280;57205;51.438;-2.006;2023-08-07T01:07:19;101421.69;;;10.67;100.00
66668;BME280;57205;51.438;-2.006;2023-08-07T01:09:44;101416.34;;;10.67;100.00
66668;BME280;57205;51.438;-2.006;2023-08-07T01:12:15;101413.59;;;10.62;100.00
66668;BME280;57205;51.438;-2.006;2023-08-07T01:14:49;101422.66;;;10.61;100.00
66668;BME280;57205;51.438;-2.006;2023-08-07T01:17:17;101416.50;;;10.61;100.00
66668;BME280;57205;51.438;-2.006;2023-08-07T01:19:45;101411.97;;;10.61;100.00
66668;BME280;57205;51.438;-2.006;2023-08-07T01:22:16;101419.91;;;10.56;100.00
66668;BME280;57205;51.438;-2.006;2023-08-07T01:24:44;101427.38;;;10.54;100.00
66668;BME280;57205;51.438;-2.006;2023-08-07T01:27:22;101420.63;;;10.52;100.00
66668;BME280;57205;51.438;-2.006;2023-08-07T01:32:26;101420.31;;;10.48;100.00
66668;BME280;57205;51.438;-2.006;2023-08-07T01:34:54;101414.41;;;10.46;100.00
66668;BME280;57205;51.438;-2.006;2023-08-07T01:37:21;101412.78;;;10.45;100.00
66668;BME280;57205;51.438;-2.006;2023-08-07T01:39:48;101416.50;;;10.44;100.00
66668;BME280;57205;51.438;-2.006;2023-08-07T01:42:14;101409.22;;;10.40;100.00
66668;BME280;57205;51.438;-2.006;2023-08-07T01:44:40;101414.81;;;10.38;100.00
66668;BME280;57205;51.438;-2.006;2023-08-07T01:47:05;101424.13;;;10.36;100.00
66668;BME280;57205;51.438;-2.006;2023-08-07T01:49:31;101413.13;;;10.32;100.00
66668;BME280;57205;51.438;-2.006;2023-08-07T01:51:56;101414.41;;;10.30;100.00
66668;BME280;57205;51.438;-2.006;2023-08-07T01:54:22;101415.13;;;10.25;100.00
66668;BME280;57205;51.438;-2.006;2023-08-07T01:56:47;101416.44;;;10.23;100.00
66668;BME280;57205;51.438;-2.006;2023-08-07T01:59:12;101416.34;;;10.18;100.00
66668;BME280;57205;51.438;-2.006;2023-08-07T02:01:38;101416.34;;;10.18;100.00
66668;BME280;57205;51.438;-2.006;2023-08-07T02:04:03;101417.63;;;10.15;100.00
66668;BME280;57205;51.438;-2.006;2023-08-07T02:06:29;101411.97;;;10.12;100.00
66668;BME280;57205;51.438;-2.006;2023-08-07T02:08:54;101409.75;;;10.09;100.00
66668;BME280;57205;51.438;-2.006;2023-08-07T02:11:19;101412.63;;;10.07;100.00
66668;BME280;57205;51.438;-2.006;2023-08-07T02:13:45;101406.72;;;10.05;100.00
66668;BME280;57205;51.438;-2.006;2023-08-07T02:16:10;101401.63;;;10.04;100.00
66668;BME280;57205;51.438;-2.006;2023-08-07T02:18:35;101402.69;;;10.03;100.00
66668;BME280;57205;51.438;-2.006;2023-08-07T02:21:01;101399.69;;;9.99;100.00
66668;BME280;57205;51.438;-2.006;2023-08-07T02:23:26;101413.50;;;9.96;100.00
66668;BME280;57205;51.438;-2.006;2023-08-07T02:25:54;101401.22;;;9.95;100.00
66668;BME280;57205;51.438;-2.006;2023-08-07T02:28:19;101406.47;;;9.90;100.00
66668;BME280;57205;51.438;-2.006;2023-08-07T02:30:45;101420.88;;;9.89;100.00
66668;BME280;57205;51.438;-2.006;2023-08-07T02:33:14;101421.94;;;9.88;100.00
66668;BME280;57205;51.438;-2.006;2023-08-07T02:35:39;101420.53;;;9.85;100.00
66668;BME280;57205;51.438;-2.006;2023-08-07T02:38:05;101417.06;;;9.85;100.00
66668;BME280;57205;51.438;-2.006;2023-08-07T02:40:30;101422.88;;;9.82;100.00
66668;BME280;57205;51.438;-2.006;2023-08-07T02:42:55;101413.22;;;9.81;100.00
66668;BME280;57205;51.438;-2.006;2023-08-07T02:45:21;101417.22;;;9.78;100.00
66668;BME280;57205;51.438;-2.006;2023-08-07T02:47:46;101428.16;;;9.77;100.00
66668;BME280;57205;51.438;-2.006;2023-08-07T02:50:12;101430.25;;;9.75;100.00
66668;BME280;57205;51.438;-2.006;2023-08-07T02:52:37;101420.00;;;9.72;100.00
66668;BME280;57205;51.438;-2.006;2023-08-07T02:55:03;101423.19;;;9.69;100.00
66668;BME280;57205;51.438;-2.006;2023-08-07T02:57:28;101415.41;;;9.67;100.00
66668;BME280;57205;51.438;-2.006;2023-08-07T02:59:54;101422.34;;;9.68;100.00
66668;BME280;57205;51.438;-2.006;2023-08-07T03:02:19;101422.34;;;9.68;100.00
66668;BME280;57205;51.438;-2.006;2023-08-07T03:04:44;101415.06;;;9.64;100.00
66668;BME280;57205;51.438;-2.006;2023-08-07T03:07:10;101414.25;;;9.63;100.00
66668;BME280;57205;51.438;-2.006;2023-08-07T03:09:38;101417.16;;;9.62;100.00
66668;BME280;57205;51.438;-2.006;2023-08-07T03:12:04;101422.97;;;9.59;100.00
66668;BME280;57205;51.438;-2.006;2023-08-07T03:14:30;101426.69;;;9.58;100.00
66668;BME280;57205;51.438;-2.006;2023-08-07T03:16:56;101427.72;;;9.57;100.00
66668;BME280;57205;51.438;-2.006;2023-08-07T03:19:21;101430.66;;;9.55;100.00
66668;BME280;57205;51.438;-2.006;2023-08-07T03:21:47;101428.78;;;9.56;100.00
66668;BME280;57205;51.438;-2.006;2023-08-07T03:24:12;101423.94;;;9.53;100.00
66668;BME280;57205;51.438;-2.006;2023-08-07T03:26:38;101432.75;;;9.53;100.00
66668;BME280;57205;51.438;-2.006;2023-08-07T03:29:03;101428.22;;;9.54;100.00
66668;BME280;57205;51.438;-2.006;2023-08-07T03:31:28;101416.72;;;9.53;100.00
66668;BME280;57205;51.438;-2.006;2023-08-07T03:33:54;101423.38;;;9.51;100.00
66668;BME280;57205;51.438;-2.006;2023-08-07T03:36:19;101414.19;;;9.47;100.00
66668;BME280;57205;51.438;-2.006;2023-08-07T03:38:45;101408.28;;;9.45;100.00
66668;BME280;57205;51.438;-2.006;2023-08-07T03:41:10;101408.53;;;9.43;100.00
66668;BME280;57205;51.438;-2.006;2023-08-07T03:43:35;101413.28;;;9.41;100.00
66668;BME280;57205;51.438;-2.006;2023-08-07T03:46:01;101411.06;;;9.38;100.00
66668;BME280;57205;51.438;-2.006;2023-08-07T03:48:26;101409.69;;;9.36;100.00
66668;BME280;57205;51.438;-2.006;2023-08-07T03:50:52;101408.06;;;9.35;100.00
66668;BME280;57205;51.438;-2.006;2023-08-07T03:53:17;101398.94;;;9.31;100.00
66668;BME280;57205;51.438;-2.006;2023-08-07T03:55:42;101404.72;;;9.28;100.00
66668;BME280;57205;51.438;-2.006;2023-08-07T03:58:10;101407.38;;;9.28;100.00
66668;BME280;57205;51.438;-2.006;2023-08-07T04:00:35;101407.28;;;9.23;100.00
66668;BME280;57205;51.438;-2.006;2023-08-07T04:03:01;101406.47;;;9.22;100.00
66668;BME280;57205;51.438;-2.006;2023-08-07T04:05:26;101397.06;;;9.20;100.00
66668;BME280;57205;51.438;-2.006;2023-08-07T04:07:51;101404.53;;;9.18;100.00
66668;BME280;57205;51.438;-2.006;2023-08-07T04:10:17;101403.47;;;9.19;100.00
66668;BME280;57205;51.438;-2.006;2023-08-07T04:12:42;101396.53;;;9.18;100.00
66668;BME280;57205;51.438;-2.006;2023-08-07T04:15:08;101411.00;;;9.22;100.00
66668;BME280;57205;51.438;-2.006;2023-08-07T04:17:35;101408.13;;;9.23;100.00
66668;BME280;57205;51.438;-2.006;2023-08-07T04:20:00;101417.50;;;9.26;100.00
66668;BME280;57205;51.438;-2.006;2023-08-07T04:22:26;101406.56;;;9.27;100.00
66668;BME280;57205;51.438;-2.006;2023-08-07T04:24:51;101412.97;;;9.26;100.00
66668;BME280;57205;51.438;-2.006;2023-08-07T04:27:16;101407.38;;;9.28;100.00
66668;BME280;57205;51.438;-2.006;2023-08-07T04:29:42;101413.78;;;9.27;100.00
66668;BME280;57205;51.438;-2.006;2023-08-07T04:32:07;101407.16;;;9.29;100.00
66668;BME280;57205;51.438;-2.006;2023-08-07T04:34:33;101402.63;;;9.30;100.00
66668;BME280;57205;51.438;-2.006;2023-08-07T04:36:58;101401.59;;;9.31;100.00
66668;BME280;57205;51.438;-2.006;2023-08-07T04:39:23;101401.00;;;9.29;100.00
66668;BME280;57205;51.438;-2.006;2023-08-07T04:41:49;101405.28;;;9.30;100.00
66668;BME280;57205;51.438;-2.006;2023-08-07T04:44:17;101412.81;;;9.33;100.00
66668;BME280;57205;51.438;-2.006;2023-08-07T04:46:42;101410.63;;;9.30;100.00
66668;BME280;57205;51.438;-2.006;2023-08-07T04:49:08;101411.69;;;9.29;100.00
66668;BME280;57205;51.438;-2.006;2023-08-07T04:51:33;101410.31;;;9.26;100.00
66668;BME280;57205;51.438;-2.006;2023-08-07T04:53:59;101412.28;;;9.31;100.00
66668;BME280;57205;51.438;-2.006;2023-08-07T04:56:24;101409.13;;;9.34;100.00
66668;BME280;57205;51.438;-2.006;2023-08-07T04:58:49;101411.31;;;9.37;100.00
66668;BME280;57205;51.438;-2.006;2023-08-07T05:01:15;101408.19;;;9.40;100.00
66668;BME280;57205;51.438;-2.006;2023-08-07T05:03:40;101414.19;;;9.47;100.00
66668;BME280;57205;51.438;-2.006;2023-08-07T05:06:06;101417.19;;;9.50;100.00
66668;BME280;57205;51.438;-2.006;2023-08-07T05:08:33;101417.78;;;9.52;100.00
66668;BME280;57205;51.438;-2.006;2023-08-07T05:10:58;101422.97;;;9.59;100.00
66668;BME280;57205;51.438;-2.006;2023-08-07T05:13:23;101432.72;;;9.65;100.00
66668;BME280;57205;51.438;-2.006;2023-08-07T05:15:49;101424.78;;;9.70;100.00
66668;BME280;57205;51.438;-2.006;2023-08-07T05:18:15;101420.72;;;9.79;100.00
66668;BME280;57205;51.438;-2.006;2023-08-07T05:20:42;101420.22;;;9.82;100.00
66668;BME280;57205;51.438;-2.006;2023-08-07T05:23:08;101424.38;;;9.90;100.00
66668;BME280;57205;51.438;-2.006;2023-08-07T05:25:34;101427.38;;;9.93;100.00
66668;BME280;57205;51.438;-2.006;2023-08-07T05:27:59;101426.81;;;10.08;100.00
66668;BME280;57205;51.438;-2.006;2023-08-07T05:30:25;101436.63;;;10.63;100.00
66668;BME280;57205;51.438;-2.006;2023-08-07T05:32:50;101426.72;;;11.40;100.00
66668;BME280;57205;51.438;-2.006;2023-08-07T05:35:15;101433.38;;;12.39;100.00
66668;BME280;57205;51.438;-2.006;2023-08-07T05:37:41;101434.56;;;13.32;100.00
66668;BME280;57205;51.438;-2.006;2023-08-07T05:40:06;101413.81;;;14.19;100.00
66668;BME280;57205;51.438;-2.006;2023-08-07T05:42:32;101391.41;;;14.94;100.00
66668;BME280;57205;51.438;-2.006;2023-08-07T05:44:58;101388.00;;;15.47;100.00
66668;BME280;57205;51.438;-2.006;2023-08-07T05:47:23;101375.59;;;15.90;100.00
66668;BME280;57205;51.438;-2.006;2023-08-07T05:49:49;101387.59;;;16.41;100.00
66668;BME280;57205;51.438;-2.006;2023-08-07T05:52:14;101375.69;;;17.00;100.00
66668;BME280;57205;51.438;-2.006;2023-08-07T05:54:40;101377.28;;;17.67;100.00
66668;BME280;57205;51.438;-2.006;2023-08-07T05:57:06;101374.13;;;18.29;100.00
66668;BME280;57205;51.438;-2.006;2023-08-07T05:59:31;101373.56;;;18.78;100.00
66668;BME280;57205;51.438;-2.006;2023-08-07T06:01:59;101377.34;;;19.31;100.00
66668;BME280;57205;51.438;-2.006;2023-08-07T06:04:25;101374.09;;;19.92;100.00
66668;BME280;57205;51.438;-2.006;2023-08-07T06:06:50;101373.28;;;20.49;100.00
66668;BME280;57205;51.438;-2.006;2023-08-07T06:09:15;101368.88;;;21.01;99.50
66668;BME280;57205;51.438;-2.006;2023-08-07T06:11:41;101369.13;;;21.38;96.46
66668;BME280;57205;51.438;-2.006;2023-08-07T06:14:07;101368.22;;;21.94;93.61
66668;BME280;57205;51.438;-2.006;2023-08-07T06:16:32;101360.31;;;22.44;89.76
66668;BME280;57205;51.438;-2.006;2023-08-07T06:18:59;101362.59;;;22.80;85.09
66668;BME280;57205;51.438;-2.006;2023-08-07T06:21:24;101364.84;;;23.15;81.22
66668;BME280;57205;51.438;-2.006;2023-08-07T06:23:50;101350.94;;;23.29;80.20
66668;BME280;57205;51.438;-2.006;2023-08-07T06:26:15;101357.59;;;23.69;78.65
66668;BME280;57205;51.438;-2.006;2023-08-07T06:28:42;101365.06;;;24.01;75.05
66668;BME280;57205;51.438;-2.006;2023-08-07T06:31:09;101363.69;;;24.28;73.27
66668;BME280;57205;51.438;-2.006;2023-08-07T06:33:35;101358.91;;;24.82;71.50
66668;BME280;57205;51.438;-2.006;2023-08-07T06:36:02;101355.47;;;24.85;67.30
66668;BME280;57205;51.438;-2.006;2023-08-07T06:38:28;101354.56;;;25.05;65.74
66668;BME280;57205;51.438;-2.006;2023-08-07T06:40:53;101370.53;;;25.03;64.66
66668;BME280;57205;51.438;-2.006;2023-08-07T06:43:19;101369.97;;;25.09;65.54
66668;BME280;57205;51.438;-2.006;2023-08-07T06:45:52;101368.00;;;25.22;66.10
66668;BME280;57205;51.438;-2.006;2023-08-07T06:48:18;101376.19;;;25.70;65.47
66668;BME280;57205;51.438;-2.006;2023-08-07T06:50:43;101375.16;;;26.02;62.61
66668;BME280;57205;51.438;-2.006;2023-08-07T06:53:09;101364.13;;;26.58;57.86
66668;BME280;57205;51.438;-2.006;2023-08-07T06:55:34;101364.94;;;27.05;58.76
66668;BME280;57205;51.438;-2.006;2023-08-07T06:58:00;101372.94;;;27.45;55.94
66668;BME280;57205;51.438;-2.006;2023-08-07T07:00:25;101370.34;;;27.52;53.57
66668;BME280;57205;51.438;-2.006;2023-08-07T07:02:51;101368.84;;;27.73;52.23
66668;BME280;57205;51.438;-2.006;2023-08-07T07:05:17;101375.41;;;26.99;54.17
66668;BME280;57205;51.438;-2.006;2023-08-07T07:07:43;101364.81;;;26.39;56.23
66668;BME280;57205;51.438;-2.006;2023-08-07T07:10:08;101375.72;;;25.68;60.61
66668;BME280;57205;51.438;-2.006;2023-08-07T07:12:34;101376.38;;;25.13;65.72
66668;BME280;57205;51.438;-2.006;2023-08-07T07:14:59;101375.75;;;24.27;72.82
66668;BME280;57205;51.438;-2.006;2023-08-07T07:17:25;101370.78;;;24.08;76.77
66668;BME280;57205;51.438;-2.006;2023-08-07T07:19:50;101385.03;;;24.14;77.50
66668;BME280;57205;51.438;-2.006;2023-08-07T07:22:15;101380.09;;;24.28;76.19
66668;BME280;57205;51.438;-2.006;2023-08-07T07:24:41;101399.03;;;24.33;79.77
66668;BME280;57205;51.438;-2.006;2023-08-07T07:27:06;101397.78;;;24.75;77.17
66668;BME280;57205;51.438;-2.006;2023-08-07T07:29:32;101393.03;;;25.21;73.51
66668;BME280;57205;51.438;-2.006;2023-08-07T07:31:57;101397.56;;;25.65;70.35
66668;BME280;57205;51.438;-2.006;2023-08-07T07:34:23;101396.13;;;25.83;68.81
66668;BME280;57205;51.438;-2.006;2023-08-07T07:36:48;101398.22;;;26.14;68.91
66668;BME280;57205;51.438;-2.006;2023-08-07T07:39:13;101394.50;;;26.49;64.91
66668;BME280;57205;51.438;-2.006;2023-08-07T07:41:39;101399.50;;;26.75;60.74
66668;BME280;57205;51.438;-2.006;2023-08-07T07:44:04;101413.16;;;27.02;58.43
66668;BME280;57205;51.438;-2.006;2023-08-07T07:46:30;101406.25;;;27.09;58.30
66668;BME280;57205;51.438;-2.006;2023-08-07T07:48:58;101401.59;;;26.66;57.14
66668;BME280;57205;51.438;-2.006;2023-08-07T07:51:24;101396.50;;;26.95;58.44
66668;BME280;57205;51.438;-2.006;2023-08-07T07:53:51;101387.19;;;27.00;53.38
66668;BME280;57205;51.438;-2.006;2023-08-07T07:56:16;101396.56;;;27.65;51.39
66668;BME280;57205;51.438;-2.006;2023-08-07T07:58:41;101406.78;;;27.83;47.83
66668;BME280;57205;51.438;-2.006;2023-08-07T08:01:07;101410.00;;;28.05;48.42
66668;BME280;57205;51.438;-2.006;2023-08-07T08:03:33;101411.63;;;28.66;46.20
66668;BME280;57205;51.438;-2.006;2023-08-07T08:05:59;101416.63;;;28.61;46.25
66668;BME280;57205;51.438;-2.006;2023-08-07T08:08:24;101417.78;;;28.82;45.70
66668;BME280;57205;51.438;-2.006;2023-08-07T08:10:49;101416.03;;;29.16;43.60
66668;BME280;57205;51.438;-2.006;2023-08-07T08:13:16;101406.81;;;29.31;43.55
66668;BME280;57205;51.438;-2.006;2023-08-07T08:15:45;101410.19;;;28.99;43.41
66668;BME280;57205;51.438;-2.006;2023-08-07T08:18:14;101402.09;;;29.32;43.50
66668;BME280;57205;51.438;-2.006;2023-08-07T08:20:39;101403.25;;;29.31;42.82
66668;BME280;57205;51.438;-2.006;2023-08-07T08:23:06;101415.16;;;29.12;43.36
66668;BME280;57205;51.438;-2.006;2023-08-07T08:25:39;101415.31;;;29.23;42.87
66668;BME280;57205;51.438;-2.006;2023-08-07T08:28:04;101407.44;;;28.99;43.18
66668;BME280;57205;51.438;-2.006;2023-08-07T08:30:30;101406.84;;;28.86;43.01
66668;BME280;57205;51.438;-2.006;2023-08-07T08:32:56;101400.06;;;29.06;42.65
66668;BME280;57205;51.438;-2.006;2023-08-07T08:35:21;101410.28;;;29.02;41.63
66668;BME280;57205;51.438;-2.006;2023-08-07T08:37:47;101413.91;;;28.83;40.96
66668;BME280;57205;51.438;-2.006;2023-08-07T08:40:17;101416.22;;;28.40;43.23
66668;BME280;57205;51.438;-2.006;2023-08-07T08:42:45;101408.28;;;28.80;41.77
66668;BME280;57205;51.438;-2.006;2023-08-07T08:45:12;101395.72;;;29.28;40.95
66668;BME280;57205;51.438;-2.006;2023-08-07T08:47:41;101403.81;;;29.69;39.40
66668;BME280;57205;51.438;-2.006;2023-08-07T08:50:12;101405.56;;;29.29;38.33
66668;BME280;57205;51.438;-2.006;2023-08-07T08:52:42;101413.56;;;28.66;39.32
66668;BME280;57205;51.438;-2.006;2023-08-07T08:55:09;101406.16;;;28.28;38.93
66668;BME280;57205;51.438;-2.006;2023-08-07T08:57:35;101405.69;;;27.19;42.90
66668;BME280;57205;51.438;-2.006;2023-08-07T09:00:02;101391.25;;;26.90;43.97
66668;BME280;57205;51.438;-2.006;2023-08-07T09:02:32;101395.41;;;27.16;43.36
66668;BME280;57205;51.438;-2.006;2023-08-07T09:05:07;101392.84;;;27.38;42.97
66668;BME280;57205;51.438;-2.006;2023-08-07T09:07:33;101389.88;;;26.81;43.67
66668;BME280;57205;51.438;-2.006;2023-08-07T09:10:02;101389.72;;;27.24;42.65
66668;BME280;57205;51.438;-2.006;2023-08-07T09:12:31;101388.44;;;27.53;42.33
66668;BME280;57205;51.438;-2.006;2023-08-07T09:14:58;101389.00;;;27.43;42.36
66668;BME280;57205;51.438;-2.006;2023-08-07T09:17:26;101386.84;;;27.52;43.48
66668;BME280;57205;51.438;-2.006;2023-08-07T09:19:54;101385.25;;;27.51;43.48
66668;BME280;57205;51.438;-2.006;2023-08-07T09:22:28;101385.31;;;28.50;41.25
66668;BME280;57205;51.438;-2.006;2023-08-07T09:24:53;101369.69;;;29.03;40.10
66668;BME280;57205;51.438;-2.006;2023-08-07T09:27:20;101373.28;;;29.29;39.84
66668;BME280;57205;51.438;-2.006;2023-08-07T09:29:46;101376.38;;;29.24;39.91
66668;BME280;57205;51.438;-2.006;2023-08-07T09:32:12;101366.41;;;29.72;40.17
66668;BME280;57205;51.438;-2.006;2023-08-07T09:34:42;101366.84;;;29.48;39.62
66668;BME280;57205;51.438;-2.006;2023-08-07T09:37:10;101360.41;;;29.66;38.62
66668;BME280;57205;51.438;-2.006;2023-08-07T09:39:37;101358.69;;;29.85;37.55
66668;BME280;57205;51.438;-2.006;2023-08-07T09:42:13;101356.25;;;30.13;38.11
66668;BME280;57205;51.438;-2.006;2023-08-07T09:44:44;101357.00;;;30.10;36.57
66668;BME280;57205;51.438;-2.006;2023-08-07T09:47:15;101353.13;;;30.18;37.30
66668;BME280;57205;51.438;-2.006;2023-08-07T09:49:43;101346.81;;;30.54;35.57
66668;BME280;57205;51.438;-2.006;2023-08-07T09:52:09;101336.69;;;30.68;34.37
66668;BME280;57205;51.438;-2.006;2023-08-07T09:54:36;101342.47;;;31.00;34.82
66668;BME280;57205;51.438;-2.006;2023-08-07T09:57:03;101341.00;;;30.66;34.00
66668;BME280;57205;51.438;-2.006;2023-08-07T09:59:29;101335.19;;;30.78;33.26
66668;BME280;57205;51.438;-2.006;2023-08-07T10:01:55;101338.91;;;30.52;34.29
66668;BME280;57205;51.438;-2.006;2023-08-07T10:04:21;101339.19;;;30.40;35.01
66668;BME280;57205;51.438;-2.006;2023-08-07T10:06:48;101343.25;;;30.53;34.30
66668;BME280;57205;51.438;-2.006;2023-08-07T10:09:15;101332.47;;;30.05;35.72
66668;BME280;57205;51.438;-2.006;2023-08-07T10:11:41;101327.16;;;29.56;36.32
66668;BME280;57205;51.438;-2.006;2023-08-07T10:14:08;101320.44;;;29.24;37.55
66668;BME280;57205;51.438;-2.006;2023-08-07T10:16:34;101317.63;;;29.79;35.86
66668;BME280;57205;51.438;-2.006;2023-08-07T10:19:05;101315.38;;;29.59;36.56
66668;BME280;57205;51.438;-2.006;2023-08-07T10:21:33;101320.63;;;30.01;35.32
66668;BME280;57205;51.438;-2.006;2023-08-07T10:24:05;101315.50;;;30.36;35.02
66668;BME280;57205;51.438;-2.006;2023-08-07T10:26:35;101320.56;;;29.97;34.54
66668;BME280;57205;51.438;-2.006;2023-08-07T10:29:04;101311.97;;;29.69;35.37
66668;BME280;57205;51.438;-2.006;2023-08-07T10:31:33;101311.91;;;29.95;34.53
66668;BME280;57205;51.438;-2.006;2023-08-07T10:34:18;101319.66;;;30.23;35.32
66668;BME280;57205;51.438;-2.006;2023-08-07T10:36:44;101312.06;;;30.53;33.63
66668;BME280;57205;51.438;-2.006;2023-08-07T10:39:11;101312.34;;;30.01;35.21
66668;BME280;57205;51.438;-2.006;2023-08-07T10:41:55;101308.13;;;29.47;34.88
66668;BME280;57205;51.438;-2.006;2023-08-07T10:46:52;101300.78;;;29.58;33.66
66668;BME280;57205;51.438;-2.006;2023-08-07T10:52:07;101295.56;;;29.50;35.10
66668;BME280;57205;51.438;-2.006;2023-08-07T10:54:53;101302.53;;;29.40;34.31
66668;BME280;57205;51.438;-2.006;2023-08-07T10:57:19;101293.97;;;29.19;33.52
66668;BME280;57205;51.438;-2.006;2023-08-07T10:59:52;101294.22;;;28.84;35.84
66668;BME280;57205;51.438;-2.006;2023-08-07T11:02:29;101291.44;;;28.36;36.05
66668;BME280;57205;51.438;-2.006;2023-08-07T11:04:55;101279.03;;;28.23;35.69
66668;BME280;57205;51.438;-2.006;2023-08-07T11:07:30;101289.03;;;28.12;35.78
66668;BME280;57205;51.438;-2.006;2023-08-07T11:09:56;101291.81;;;27.92;36.60
66668;BME280;57205;51.438;-2.006;2023-08-07T11:12:26;101289.50;;;27.37;38.06
66668;BME280;57205;51.438;-2.006;2023-08-07T11:14:52;101283.81;;;27.11;38.61
66668;BME280;57205;51.438;-2.006;2023-08-07T11:17:46;101278.31;;;26.76;39.57
66668;BME280;57205;51.438;-2.006;2023-08-07T11:20:11;101277.63;;;26.33;41.72
66668;BME280;57205;51.438;-2.006;2023-08-07T11:22:37;101273.22;;;26.00;42.51
66668;BME280;57205;51.438;-2.006;2023-08-07T11:25:03;101269.66;;;25.84;42.64
66668;BME280;57205;51.438;-2.006;2023-08-07T11:27:29;101266.50;;;25.43;42.24
66668;BME280;57205;51.438;-2.006;2023-08-07T11:29:54;101263.94;;;25.62;43.54
66668;BME280;57205;51.438;-2.006;2023-08-07T11:32:21;101266.47;;;25.82;43.93
66668;BME280;57205;51.438;-2.006;2023-08-07T11:34:49;101271.31;;;25.89;43.75
66668;BME280;57205;51.438;-2.006;2023-08-07T11:37:16;101261.16;;;25.89;44.04
66668;BME280;57205;51.438;-2.006;2023-08-07T11:39:44;101264.16;;;25.84;45.34
66668;BME280;57205;51.438;-2.006;2023-08-07T11:42:09;101262.59;;;25.99;43.77
66668;BME280;57205;51.438;-2.006;2023-08-07T11:44:36;101256.75;;;26.00;43.93
66668;BME280;57205;51.438;-2.006;2023-08-07T11:47:02;101254.22;;;26.08;44.76
66668;BME280;57205;51.438;-2.006;2023-08-07T11:49:39;101247.34;;;26.01;43.40
66668;BME280;57205;51.438;-2.006;2023-08-07T11:52:05;101245.84;;;25.88;44.16
66668;BME280;57205;51.438;-2.006;2023-08-07T11:54:31;101244.63;;;25.86;45.02
66668;BME280;57205;51.438;-2.006;2023-08-07T11:56:56;101245.78;;;26.00;44.49
66668;BME280;57205;51.438;-2.006;2023-08-07T11:59:22;101247.28;;;25.98;44.63
66668;BME280;57205;51.438;-2.006;2023-08-07T12:01:47;101250.19;;;25.89;44.80
66668;BME280;57205;51.438;-2.006;2023-08-07T12:04:14;101250.19;;;25.89;44.44
66668;BME280;57205;51.438;-2.006;2023-08-07T12:06:52;101240.88;;;25.78;45.81
66668;BME280;57205;51.438;-2.006;2023-08-07T12:09:19;101237.69;;;25.76;47.21
66668;BME280;57205;51.438;-2.006;2023-08-07T12:11:45;101245.72;;;25.69;47.04
66668;BME280;57205;51.438;-2.006;2023-08-07T12:14:35;101235.53;;;25.70;47.80
66668;BME280;57205;51.438;-2.006;2023-08-07T12:17:04;101228.97;;;25.59;47.51
66668;BME280;57205;51.438;-2.006;2023-08-07T12:19:39;101224.56;;;25.70;45.59
66668;BME280;57205;51.438;-2.006;2023-08-07T12:22:07;101236.63;;;25.81;45.46
66668;BME280;57205;51.438;-2.006;2023-08-07T12:24:35;101215.31;;;25.74;45.98
66668;BME280;57205;51.438;-2.006;2023-08-07T12:27:00;101226.31;;;25.62;47.17
66668;BME280;57205;51.438;-2.006;2023-08-07T12:29:29;101213.75;;;25.34;46.24
66668;BME280;57205;51.438;-2.006;2023-08-07T12:31:55;101226.47;;;25.26;45.76
66668;BME280;57205;51.438;-2.006;2023-08-07T12:34:20;101226.56;;;25.30;46.03
66668;BME280;57205;51.438;-2.006;2023-08-07T12:36:46;101218.25;;;25.14;47.87
66668;BME280;57205;51.438;-2.006;2023-08-07T12:39:17;101223.25;;;25.24;47.51
66668;BME280;57205;51.438;-2.006;2023-08-07T12:41:42;101222.91;;;25.26;47.96
66668;BME280;57205;51.438;-2.006;2023-08-07T12:44:08;101208.75;;;25.24;48.27